Tiger — 9HA2271 — position and weather

sailwx.info

Track history (hours):
 
Tides and Currents Weather Stations Pressure Air Temp Water Temp Dewpoint Dewpoint Depression Visibility Wind Speed Wind Dir Waves Ship Positions

Tiger

Last reported at 2017-Jan-17 21:32 UTC. Time now 2017-Jan-24 21:28 UTC.
Position N 31°50' W 080°28'.

Length 231 m; draft 10.2 m.

Type: Cargo ship. MMSI: 248223000.

Date/timePositionNaut miles runAvg speedWind from/ knotsBaromVisibWave heightAir tempDewpointWater temp
2017-Jan-17 21:32N 31°50' W 080°28'1010.6
2017-Jan-17 20:33N 31°55' W 080°39'1111.1
2017-Jan-17 19:34N 32°02' W 080°49'1111.5
2017-Jan-17 18:33N 32°05' W 081°02'3 2.9
2017-Jan-17 17:29N 32°05' W 081°06'0 0.0
2017-Jan-17 16:29N 32°05' W 081°06'0 0.0
2017-Jan-17 15:23N 32°05' W 081°06'0 0.0
2017-Jan-17 14:29N 32°05' W 081°06'0 0.0
2017-Jan-17 13:23N 32°05' W 081°06'0 0.0
2017-Jan-17 12:29N 32°05' W 081°06'0 0.0
2017-Jan-17 11:23N 32°05' W 081°06'0 0.0
2017-Jan-17 10:23N 32°05' W 081°06'0 0.0
2017-Jan-17 09:29N 32°05' W 081°06'0 0.0
2017-Jan-17 08:23N 32°05' W 081°06'0 0.0
2017-Jan-17 07:29N 32°05' W 081°06'0 0.0
2017-Jan-17 06:29N 32°05' W 081°06'0 0.0
2017-Jan-17 05:29N 32°05' W 081°06'0 0.0
2017-Jan-17 04:29N 32°05' W 081°06'0 0.0
2017-Jan-17 03:23N 32°05' W 081°06'0 0.0
2017-Jan-17 02:29N 32°05' W 081°06'0 0.0
2017-Jan-17 01:29N 32°05' W 081°06'0 0.0
2017-Jan-17 00:29N 32°05' W 081°06'0 0.0
2017-Jan-16 23:29N 32°05' W 081°06'0 0.0
2017-Jan-16 22:29N 32°05' W 081°06'0 0.0
2017-Jan-16 20:23N 32°05' W 081°06'0 0.0
2017-Jan-16 19:29N 32°05' W 081°06'0 0.0
2017-Jan-16 18:23N 32°05' W 081°06'0 0.0
2017-Jan-16 17:29N 32°05' W 081°06'0 0.0
2017-Jan-16 16:29N 32°05' W 081°06'0 0.0
2017-Jan-16 15:23N 32°05' W 081°06'0 0.0
2017-Jan-16 14:29N 32°05' W 081°06'0 0.0
2017-Jan-16 13:05N 32°05' W 081°06'0 0.0
2017-Jan-16 12:29N 32°05' W 081°06'0 0.0
2017-Jan-16 11:32N 32°05' W 081°06'0 0.0
2017-Jan-16 10:29N 32°05' W 081°06'2 1.9
2017-Jan-16 09:33N 32°07' W 081°07'1 0.6
2017-Jan-16 08:34N 32°06' W 081°07'5 4.9
2017-Jan-16 07:33N 32°06' W 081°01'1010.0
2017-Jan-16 06:33N 32°02' W 080°50'1211.7
2017-Jan-16 05:33N 31°58' W 080°37'8 7.7
2017-Jan-16 04:33N 31°60' W 080°29'16 7.9
2017-Jan-16 02:30N 32°03' W 080°10'12 8.4
2017-Jan-16 01:03N 32°06' W 079°56'5 9.1
2017-Jan-16 00:33N 32°07' W 079°51'34613.3
2017-Jan-14 22:33N 36°52' W 075°53'1111.2
2017-Jan-14 21:33N 37°00' W 076°02'10717.7
2017-Jan-14 15:32N 38°45' W 076°26'1717.5
2017-Jan-14 14:34N 39°02' W 076°23'1212.1
2017-Jan-14 13:33N 39°12' W 076°31'3 2.5
2017-Jan-14 12:32N 39°15' W 076°32'0 0.0
2017-Jan-14 11:32N 39°15' W 076°32'0 0.0
2017-Jan-14 10:33N 39°15' W 076°32'0 0.0
2017-Jan-14 09:32N 39°15' W 076°32'0 0.0
2017-Jan-14 08:33N 39°15' W 076°32'0 0.0
2017-Jan-14 07:33N 39°15' W 076°32'0 0.0
2017-Jan-14 06:33N 39°15' W 076°32'0 0.0
2017-Jan-14 05:32N 39°15' W 076°32'0 0.0
2017-Jan-14 04:32N 39°15' W 076°32'0 0.0
2017-Jan-14 03:32N 39°15' W 076°32'0 0.0
2017-Jan-13 23:32N 39°15' W 076°32'0 0.0
2017-Jan-13 22:32N 39°15' W 076°32'0 0.0
2017-Jan-13 21:32N 39°15' W 076°32'0 0.0
2017-Jan-13 20:32N 39°15' W 076°32'0 0.0
2017-Jan-13 19:32N 39°15' W 076°32'0 0.0
2017-Jan-13 18:32N 39°15' W 076°32'0 0.0
2017-Jan-13 17:32N 39°15' W 076°32'0 0.0
2017-Jan-13 16:32N 39°15' W 076°32'0 0.0
2017-Jan-13 15:32N 39°15' W 076°32'0 0.0
2017-Jan-13 14:32N 39°15' W 076°32'0 0.0
2017-Jan-13 13:32N 39°15' W 076°32'0 0.0
2017-Jan-13 12:32N 39°15' W 076°32'0 0.0
2017-Jan-13 11:29N 39°15' W 076°32'0 0.0
2017-Jan-13 10:32N 39°15' W 076°32'0 0.0
2017-Jan-13 09:32N 39°15' W 076°32'0 0.0
2017-Jan-13 08:32N 39°15' W 076°32'0 0.0
2017-Jan-13 07:32N 39°15' W 076°32'0 0.0
2017-Jan-13 06:30N 39°15' W 076°32'0 0.0
2017-Jan-13 05:32N 39°15' W 076°32'0 0.0
2017-Jan-13 04:32N 39°15' W 076°32'0 0.0
2017-Jan-13 03:32N 39°15' W 076°32'0 0.0
2017-Jan-13 02:32N 39°15' W 076°32'0 0.0
2017-Jan-13 01:32N 39°15' W 076°32'1 0.6
2017-Jan-13 00:34N 39°14' W 076°33'2 1.5
2017-Jan-12 23:32N 39°15' W 076°35'0 0.0
2017-Jan-12 22:32N 39°15' W 076°35'0 0.0
2017-Jan-12 21:32N 39°15' W 076°35'0 0.0
2017-Jan-12 20:32N 39°15' W 076°35'0 0.0
2017-Jan-12 19:32N 39°15' W 076°35'0 0.0
2017-Jan-12 18:32N 39°15' W 076°35'0 0.0
2017-Jan-12 17:32N 39°15' W 076°35'0 0.0
2017-Jan-12 16:33N 39°15' W 076°35'3 3.3
2017-Jan-12 15:33N 39°13' W 076°32'1110.7
2017-Jan-12 14:33N 39°04' W 076°24'1917.5
2017-Jan-12 13:30N 38°46' W 076°25'3618.0
2017-Jan-12 11:29N 38°11' W 076°14'6816.3
2017-Jan-12 07:20N 37°03' W 076°05'1012.5
2017-Jan-12 06:33N 36°56' W 075°57'  
Track history (hours):
 
Tides and Currents Weather Stations Pressure Air Temp Water Temp Dewpoint Dewpoint Depression Visibility Wind Speed Wind Dir Waves Ship Positions

Tiger

Last reported at 2017-Jan-17 21:32 UTC. Time now 2017-Jan-24 21:28 UTC.
Position N 31°50' W 080°28'.

Length 231 m; draft 10.2 m.

Type: Cargo ship. MMSI: 248223000.

Date/timePositionNaut miles runAvg speedWind from/ knotsBaromVisibWave heightAir tempDewpointWater temp
2017-Jan-17 21:32N 31°50' W 080°28'1010.6
2017-Jan-17 20:33N 31°55' W 080°39'1111.1
2017-Jan-17 19:34N 32°02' W 080°49'1111.5
2017-Jan-17 18:33N 32°05' W 081°02'3 2.9
2017-Jan-17 17:29N 32°05' W 081°06'0 0.0
2017-Jan-17 16:29N 32°05' W 081°06'0 0.0
2017-Jan-17 15:23N 32°05' W 081°06'0 0.0
2017-Jan-17 14:29N 32°05' W 081°06'0 0.0
2017-Jan-17 13:23N 32°05' W 081°06'0 0.0
2017-Jan-17 12:29N 32°05' W 081°06'0 0.0
2017-Jan-17 11:23N 32°05' W 081°06'0 0.0
2017-Jan-17 10:23N 32°05' W 081°06'0 0.0
2017-Jan-17 09:29N 32°05' W 081°06'0 0.0
2017-Jan-17 08:23N 32°05' W 081°06'0 0.0
2017-Jan-17 07:29N 32°05' W 081°06'0 0.0
2017-Jan-17 06:29N 32°05' W 081°06'0 0.0
2017-Jan-17 05:29N 32°05' W 081°06'0 0.0
2017-Jan-17 04:29N 32°05' W 081°06'0 0.0
2017-Jan-17 03:23N 32°05' W 081°06'0 0.0
2017-Jan-17 02:29N 32°05' W 081°06'0 0.0
2017-Jan-17 01:29N 32°05' W 081°06'0 0.0
2017-Jan-17 00:29N 32°05' W 081°06'0 0.0
2017-Jan-16 23:29N 32°05' W 081°06'0 0.0
2017-Jan-16 22:29N 32°05' W 081°06'0 0.0
2017-Jan-16 20:23N 32°05' W 081°06'0 0.0
2017-Jan-16 19:29N 32°05' W 081°06'0 0.0
2017-Jan-16 18:23N 32°05' W 081°06'0 0.0
2017-Jan-16 17:29N 32°05' W 081°06'0 0.0
2017-Jan-16 16:29N 32°05' W 081°06'0 0.0
2017-Jan-16 15:23N 32°05' W 081°06'0 0.0
2017-Jan-16 14:29N 32°05' W 081°06'0 0.0
2017-Jan-16 13:05N 32°05' W 081°06'0 0.0
2017-Jan-16 12:29N 32°05' W 081°06'0 0.0
2017-Jan-16 11:32N 32°05' W 081°06'0 0.0
2017-Jan-16 10:29N 32°05' W 081°06'2 1.9
2017-Jan-16 09:33N 32°07' W 081°07'1 0.6
2017-Jan-16 08:34N 32°06' W 081°07'5 4.9
2017-Jan-16 07:33N 32°06' W 081°01'1010.0
2017-Jan-16 06:33N 32°02' W 080°50'1211.7
2017-Jan-16 05:33N 31°58' W 080°37'8 7.7
2017-Jan-16 04:33N 31°60' W 080°29'16 7.9
2017-Jan-16 02:30N 32°03' W 080°10'12 8.4
2017-Jan-16 01:03N 32°06' W 079°56'5 9.1
2017-Jan-16 00:33N 32°07' W 079°51'34613.3
2017-Jan-14 22:33N 36°52' W 075°53'1111.2
2017-Jan-14 21:33N 37°00' W 076°02'10717.7
2017-Jan-14 15:32N 38°45' W 076°26'1717.5
2017-Jan-14 14:34N 39°02' W 076°23'1212.1
2017-Jan-14 13:33N 39°12' W 076°31'3 2.5
2017-Jan-14 12:32N 39°15' W 076°32'0 0.0
2017-Jan-14 11:32N 39°15' W 076°32'0 0.0
2017-Jan-14 10:33N 39°15' W 076°32'0 0.0
2017-Jan-14 09:32N 39°15' W 076°32'0 0.0
2017-Jan-14 08:33N 39°15' W 076°32'0 0.0
2017-Jan-14 07:33N 39°15' W 076°32'0 0.0
2017-Jan-14 06:33N 39°15' W 076°32'0 0.0
2017-Jan-14 05:32N 39°15' W 076°32'0 0.0
2017-Jan-14 04:32N 39°15' W 076°32'0 0.0
2017-Jan-14 03:32N 39°15' W 076°32'0 0.0
2017-Jan-13 23:32N 39°15' W 076°32'0 0.0
2017-Jan-13 22:32N 39°15' W 076°32'0 0.0
2017-Jan-13 21:32N 39°15' W 076°32'0 0.0
2017-Jan-13 20:32N 39°15' W 076°32'0 0.0
2017-Jan-13 19:32N 39°15' W 076°32'0 0.0
2017-Jan-13 18:32N 39°15' W 076°32'0 0.0
2017-Jan-13 17:32N 39°15' W 076°32'0 0.0
2017-Jan-13 16:32N 39°15' W 076°32'0 0.0
2017-Jan-13 15:32N 39°15' W 076°32'0 0.0
2017-Jan-13 14:32N 39°15' W 076°32'0 0.0
2017-Jan-13 13:32N 39°15' W 076°32'0 0.0
2017-Jan-13 12:32N 39°15' W 076°32'0 0.0
2017-Jan-13 11:29N 39°15' W 076°32'0 0.0
2017-Jan-13 10:32N 39°15' W 076°32'0 0.0
2017-Jan-13 09:32N 39°15' W 076°32'0 0.0
2017-Jan-13 08:32N 39°15' W 076°32'0 0.0
2017-Jan-13 07:32N 39°15' W 076°32'0 0.0
2017-Jan-13 06:30N 39°15' W 076°32'0 0.0
2017-Jan-13 05:32N 39°15' W 076°32'0 0.0
2017-Jan-13 04:32N 39°15' W 076°32'0 0.0
2017-Jan-13 03:32N 39°15' W 076°32'0 0.0
2017-Jan-13 02:32N 39°15' W 076°32'0 0.0
2017-Jan-13 01:32N 39°15' W 076°32'1 0.6
2017-Jan-13 00:34N 39°14' W 076°33'2 1.5
2017-Jan-12 23:32N 39°15' W 076°35'0 0.0
2017-Jan-12 22:32N 39°15' W 076°35'0 0.0
2017-Jan-12 21:32N 39°15' W 076°35'0 0.0
2017-Jan-12 20:32N 39°15' W 076°35'0 0.0
2017-Jan-12 19:32N 39°15' W 076°35'0 0.0
2017-Jan-12 18:32N 39°15' W 076°35'0 0.0
2017-Jan-12 17:32N 39°15' W 076°35'0 0.0
2017-Jan-12 16:33N 39°15' W 076°35'3 3.3
2017-Jan-12 15:33N 39°13' W 076°32'1110.7
2017-Jan-12 14:33N 39°04' W 076°24'1917.5
2017-Jan-12 13:30N 38°46' W 076°25'3618.0
2017-Jan-12 11:29N 38°11' W 076°14'6816.3
2017-Jan-12 07:20N 37°03' W 076°05'1012.5
2017-Jan-12 06:33N 36°56' W 075°57'  

Dump ship's entire track history